createdAt,value
2019-03-08T00:00:03.203Z,987.76
2019-03-08T00:05:08.091Z,987.85
2019-03-08T00:10:09.438Z,987.9
2019-03-08T00:15:07.364Z,987.91
2019-03-08T00:20:09.288Z,987.96
2019-03-08T00:25:07.693Z,988.02
2019-03-08T00:30:04.277Z,988.01
2019-03-08T00:35:09.293Z,987.92
2019-03-08T00:40:07.487Z,987.96
2019-03-08T00:45:03.043Z,988.14
2019-03-08T00:50:07.574Z,988.24
2019-03-08T00:55:07.802Z,988.38
2019-03-08T01:00:03.502Z,988.38
2019-03-08T01:05:07.514Z,988.53
2019-03-08T01:10:09.203Z,988.6
2019-03-08T01:15:03.475Z,988.67
2019-03-08T01:20:07.825Z,988.64
2019-03-08T01:25:07.571Z,988.72
2019-03-08T01:30:03.244Z,988.72
2019-03-08T01:35:07.608Z,988.73
2019-03-08T01:40:06.956Z,988.82
2019-03-08T01:45:04.670Z,988.77
2019-03-08T01:50:07.055Z,988.99
2019-03-08T01:55:05.596Z,989.03
2019-03-08T02:00:06.987Z,989.01
2019-03-08T02:05:04.859Z,989.04
2019-03-08T02:10:02.818Z,988.99
2019-03-08T02:15:06.548Z,989.05
2019-03-08T02:20:07.024Z,988.97
2019-03-08T02:25:07.865Z,988.99
2019-03-08T02:30:06.387Z,989.1
2019-03-08T02:35:09.566Z,988.96
2019-03-08T02:40:07.728Z,989.05
2019-03-08T02:45:04.785Z,989.09
2019-03-08T02:50:07.369Z,989.13
2019-03-08T02:55:07.655Z,989.16
2019-03-08T03:00:04.277Z,989.24
2019-03-08T03:05:07.420Z,989.29
2019-03-08T03:10:08.115Z,989.36
2019-03-08T03:15:04.684Z,989.35
2019-03-08T03:20:10.493Z,989.37
2019-03-08T03:25:12.248Z,989.45
2019-03-08T03:30:08.915Z,989.5
2019-03-08T03:35:13.226Z,989.67
2019-03-08T03:40:14.191Z,989.63
2019-03-08T03:45:06.301Z,989.65
2019-03-08T03:50:12.053Z,989.74
2019-03-08T03:55:10.079Z,989.77
2019-03-08T04:00:04.857Z,989.83
2019-03-08T04:05:08.507Z,989.91
2019-03-08T04:10:04.066Z,989.98
2019-03-08T04:15:04.609Z,989.97
2019-03-08T04:20:09.704Z,990.15
2019-03-08T04:25:10.252Z,990.19
2019-03-08T04:30:02.793Z,990.28
2019-03-08T04:35:10.037Z,990.26
2019-03-08T04:40:03.967Z,990.36
2019-03-08T04:45:03.879Z,990.47
2019-03-08T04:50:03.930Z,990.55
2019-03-08T04:55:04.704Z,990.58
2019-03-08T05:00:03.208Z,990.68
2019-03-08T05:05:04.116Z,990.78
2019-03-08T05:10:05.822Z,990.79
2019-03-08T05:15:04.576Z,990.86
2019-03-08T05:20:04.340Z,990.91
2019-03-08T05:25:05.854Z,991.01
2019-03-08T05:30:03.477Z,991.1
2019-03-08T05:35:06.355Z,991.2
2019-03-08T05:40:10.641Z,991.26
2019-03-08T05:45:04.400Z,991.45
2019-03-08T05:50:11.966Z,991.6
2019-03-08T05:55:07.633Z,991.78
2019-03-08T06:00:04.323Z,992
2019-03-08T06:05:09.983Z,992.15
2019-03-08T06:10:06.209Z,992.28
2019-03-08T06:15:03.850Z,992.39
2019-03-08T06:20:08.696Z,992.51
2019-03-08T06:25:07.206Z,992.57
2019-03-08T06:30:03.782Z,992.71
2019-03-08T06:35:07.583Z,992.86
2019-03-08T06:40:07.423Z,992.97
2019-03-08T06:45:04.091Z,993.11
2019-03-08T06:50:05.835Z,993.16
2019-03-08T06:55:07.812Z,993.27
2019-03-08T07:00:04.245Z,993.46
2019-03-08T07:05:06.926Z,993.58
2019-03-08T07:10:08.581Z,993.77
2019-03-08T07:15:04.369Z,993.89
2019-03-08T07:20:07.316Z,994.05
2019-03-08T07:25:10.133Z,994.17
2019-03-08T07:30:05.810Z,994.35
2019-03-08T07:35:09.751Z,994.56
2019-03-08T07:40:07.975Z,994.72
2019-03-08T07:45:04.566Z,994.88
2019-03-08T07:50:08.551Z,995.09
2019-03-08T07:55:08.122Z,995.18
2019-03-08T08:00:04.205Z,995.31
2019-03-08T08:05:07.597Z,995.39
2019-03-08T08:10:07.163Z,995.42
2019-03-08T08:15:03.809Z,995.49
2019-03-08T08:20:16.763Z,995.6
2019-03-08T08:25:08.298Z,995.67
2019-03-08T08:30:03.922Z,995.76
2019-03-08T08:35:07.976Z,995.83
2019-03-08T08:40:07.943Z,995.92
2019-03-08T08:45:04.610Z,996.01
2019-03-08T08:50:07.588Z,996.16
2019-03-08T08:55:07.965Z,996.3
2019-03-08T09:00:03.457Z,996.37
2019-03-08T09:05:07.818Z,996.43
2019-03-08T09:10:06.464Z,996.53
2019-03-08T09:15:03.513Z,996.64
2019-03-08T09:20:07.542Z,996.62
2019-03-08T09:25:06.645Z,996.82
2019-03-08T09:30:03.166Z,996.93
2019-03-08T09:35:07.270Z,996.97
2019-03-08T09:40:05.931Z,997.06
2019-03-08T09:45:03.459Z,997.12
2019-03-08T09:50:07.848Z,997.2
2019-03-08T09:55:07.196Z,997.27
2019-03-08T10:00:02.857Z,997.33
2019-03-08T10:05:08.714Z,997.36
2019-03-08T10:10:08.466Z,997.44
2019-03-08T10:15:02.988Z,997.53
2019-03-08T10:20:07.528Z,997.54
2019-03-08T10:25:07.659Z,997.53
2019-03-08T10:30:03.163Z,997.63
2019-03-08T10:35:06.911Z,997.72
2019-03-08T10:40:05.882Z,997.75
2019-03-08T10:45:03.365Z,997.92
2019-03-08T10:50:04.243Z,998.01
2019-03-08T10:55:05.177Z,998.01
2019-03-08T11:00:03.326Z,998.09
2019-03-08T11:05:05.768Z,998.12
2019-03-08T11:10:10.365Z,998.15
2019-03-08T11:15:04.519Z,998.32
2019-03-08T11:20:09.683Z,998.39
2019-03-08T11:25:11.607Z,998.53
2019-03-08T11:30:04.266Z,998.48
2019-03-08T11:35:08.175Z,998.69
2019-03-08T11:40:07.668Z,998.72
2019-03-08T11:45:04.417Z,998.74
2019-03-08T11:50:07.428Z,998.79
2019-03-08T11:55:07.105Z,998.66
2019-03-08T12:00:03.809Z,998.75
2019-03-08T12:05:07.358Z,998.63
2019-03-08T12:10:06.974Z,998.75
2019-03-08T12:15:04.570Z,998.73
2019-03-08T12:20:08.150Z,998.66
2019-03-08T12:25:07.514Z,998.77
2019-03-08T12:30:05.786Z,998.81
2019-03-08T12:35:07.216Z,998.79
2019-03-08T12:40:07.070Z,998.68
2019-03-08T12:45:03.680Z,998.73
2019-03-08T12:50:07.319Z,998.75
2019-03-08T12:55:07.007Z,998.83
2019-03-08T13:00:03.958Z,998.78
2019-03-08T13:05:08.253Z,998.69
2019-03-08T13:10:08.167Z,998.76
2019-03-08T13:15:03.767Z,998.73
2019-03-08T13:20:07.964Z,998.76
2019-03-08T13:25:09.242Z,998.79
2019-03-08T13:30:04.034Z,998.78
2019-03-08T13:35:08.932Z,998.78
2019-03-08T13:40:08.942Z,998.78
2019-03-08T13:45:04.400Z,998.69
2019-03-08T13:50:08.074Z,998.76
2019-03-08T13:55:09.898Z,998.82
2019-03-08T14:00:03.971Z,998.81
2019-03-08T14:05:08.859Z,998.88
2019-03-08T14:10:07.323Z,998.92
2019-03-08T14:15:03.545Z,998.81
2019-03-08T14:20:07.723Z,998.71
2019-03-08T14:25:08.196Z,998.68
2019-03-08T14:30:03.328Z,998.69
2019-03-08T14:35:07.721Z,998.67
2019-03-08T14:40:06.836Z,998.74
2019-03-08T14:45:09.128Z,998.66
2019-03-08T14:50:06.004Z,998.71
2019-03-08T14:55:07.528Z,998.75
2019-03-08T15:00:03.511Z,998.78
2019-03-08T15:05:18.998Z,998.73
2019-03-08T15:10:10.552Z,998.74
2019-03-08T15:15:03.036Z,998.7
2019-03-08T15:20:15.582Z,998.96
2019-03-08T15:25:15.021Z,998.97
2019-03-08T15:30:02.577Z,998.95
2019-03-08T15:35:06.491Z,998.88
2019-03-08T15:40:07.766Z,998.81
2019-03-08T15:45:07.337Z,998.89
2019-03-08T15:50:09.821Z,999.02
2019-03-08T15:55:08.073Z,999.04
2019-03-08T16:00:03.058Z,998.99
2019-03-08T16:05:06.705Z,998.96
2019-03-08T16:10:05.727Z,998.99
2019-03-08T16:15:03.220Z,999.1
2019-03-08T16:20:06.035Z,999.06
2019-03-08T16:25:08.823Z,999.04
2019-03-08T16:30:10.788Z,999.08
2019-03-08T16:35:07.846Z,999.18
2019-03-08T16:40:08.003Z,999.36
2019-03-08T16:45:03.189Z,999.34
2019-03-08T16:50:06.982Z,999.25
2019-03-08T16:55:06.374Z,999.26
2019-03-08T17:00:04.042Z,999.26
2019-03-08T17:05:07.762Z,999.28
2019-03-08T17:10:06.205Z,999.26
2019-03-08T17:15:04.432Z,999.19
2019-03-08T17:20:07.450Z,999.01
2019-03-08T17:25:08.283Z,999
2019-03-08T17:30:03.849Z,999.2
2019-03-08T17:35:09.013Z,999.3
2019-03-08T17:40:07.498Z,999.29
2019-03-08T17:45:04.186Z,999.35
2019-03-08T17:50:05.738Z,999.36
2019-03-08T17:55:07.396Z,999.42
2019-03-08T18:00:04.597Z,999.4
2019-03-08T18:05:07.967Z,999.44
2019-03-08T18:10:07.400Z,999.45
2019-03-08T18:15:04.062Z,999.43
2019-03-08T18:20:06.579Z,999.42
2019-03-08T18:25:08.657Z,999.48
2019-03-08T18:30:04.321Z,999.45
2019-03-08T18:35:06.951Z,999.54
2019-03-08T18:40:07.567Z,999.52
2019-03-08T18:45:04.115Z,999.45
2019-03-08T18:50:06.708Z,999.43
2019-03-08T18:55:07.439Z,999.44
2019-03-08T19:00:04.765Z,999.42
2019-03-08T19:05:07.374Z,999.37
2019-03-08T19:10:07.247Z,999.38
2019-03-08T19:15:03.321Z,999.36
2019-03-08T19:20:06.378Z,999.32
2019-03-08T19:25:07.460Z,999.31
2019-03-08T19:30:03.878Z,999.32
2019-03-08T19:35:07.040Z,999.29
2019-03-08T19:40:06.920Z,999.2
2019-03-08T19:45:03.932Z,999.14
2019-03-08T19:50:07.266Z,999.15
2019-03-08T19:55:06.333Z,999.16
2019-03-08T20:00:03.782Z,999.08
2019-03-08T20:05:06.694Z,999
2019-03-08T20:10:07.265Z,999
2019-03-08T20:15:02.856Z,998.99
2019-03-08T20:20:07.274Z,998.96
2019-03-08T20:25:07.305Z,998.95
2019-03-08T20:30:02.906Z,998.92
2019-03-08T20:35:06.828Z,998.86
2019-03-08T20:40:06.681Z,998.78
2019-03-08T20:45:03.237Z,998.77
2019-03-08T20:50:06.230Z,998.74
2019-03-08T20:55:06.831Z,998.76
2019-03-08T21:00:03.861Z,998.68
2019-03-08T21:05:08.031Z,998.57
2019-03-08T21:10:09.197Z,998.44
2019-03-08T21:15:03.005Z,998.36
2019-03-08T21:20:06.531Z,998.32
2019-03-08T21:25:09.745Z,998.32
2019-03-08T21:30:03.526Z,998.3
2019-03-08T21:35:07.539Z,998.18
2019-03-08T21:40:08.986Z,998.08
2019-03-08T21:45:04.597Z,998.16
2019-03-08T21:50:07.496Z,998.18
2019-03-08T21:55:06.017Z,998.06
2019-03-08T22:00:02.555Z,997.98
2019-03-08T22:05:06.754Z,997.97
2019-03-08T22:10:06.166Z,997.92
2019-03-08T22:15:02.700Z,997.84
2019-03-08T22:20:04.495Z,997.7
2019-03-08T22:25:04.576Z,997.69
2019-03-08T22:30:03.128Z,997.61
2019-03-08T22:35:04.044Z,997.48
2019-03-08T22:40:04.860Z,997.44
2019-03-08T22:45:03.905Z,997.32
2019-03-08T22:50:05.684Z,997.22
2019-03-08T22:55:06.207Z,997.23
2019-03-08T23:00:03.239Z,997.1
2019-03-08T23:05:06.074Z,997.04
2019-03-08T23:10:05.374Z,996.99
2019-03-08T23:15:04.698Z,996.8
2019-03-08T23:20:07.019Z,996.87
2019-03-08T23:25:07.245Z,996.8
2019-03-08T23:30:03.804Z,996.7
2019-03-08T23:35:06.510Z,996.49
2019-03-08T23:40:07.382Z,996.44
2019-03-08T23:45:04.067Z,996.41
2019-03-08T23:50:06.640Z,996.3
2019-03-08T23:55:07.958Z,996.21
